sensor_id;sensor_type;location;lat;lon;timestamp;pressure;altitude;pressure_sealevel;temperature;humidity
78839;BME280;68405;47.190;27.558;2024-03-23T00:54:36;99726.29;;;6.25;68.39
78839;BME280;68405;47.190;27.558;2024-03-23T00:57:08;99724.60;;;6.23;68.26
78839;BME280;68405;47.190;27.558;2024-03-23T00:59:39;99719.84;;;6.20;68.39
78839;BME280;68405;47.190;27.558;2024-03-23T01:02:11;99714.36;;;6.17;68.14
78839;BME280;68405;47.190;27.558;2024-03-23T01:04:42;99715.46;;;6.14;68.23
78839;BME280;68405;47.190;27.558;2024-03-23T01:07:14;99711.88;;;6.11;68.26
78839;BME280;68405;47.190;27.558;2024-03-23T01:09:46;99711.77;;;6.09;68.13
78839;BME280;68405;47.190;27.558;2024-03-23T01:12:18;99710.27;;;6.05;68.57
78839;BME280;68405;47.190;27.558;2024-03-23T01:14:49;99710.67;;;6.03;68.48
78839;BME280;68405;47.190;27.558;2024-03-23T01:17:20;99712.29;;;5.99;68.40
78839;BME280;68405;47.190;27.558;2024-03-23T01:19:52;99710.93;;;5.96;68.94
78839;BME280;68405;47.190;27.558;2024-03-23T01:22:24;99708.70;;;5.95;69.18
78839;BME280;68405;47.190;27.558;2024-03-23T01:24:56;99708.09;;;5.91;69.38
78839;BME280;68405;47.190;27.558;2024-03-23T01:27:28;99708.31;;;5.89;68.98
78839;BME280;68405;47.190;27.558;2024-03-23T01:30:02;99703.18;;;5.86;68.91
78839;BME280;68405;47.190;27.558;2024-03-23T01:32:33;99704.96;;;5.83;69.31
78839;BME280;68405;47.190;27.558;2024-03-23T01:35:05;99704.67;;;5.80;69.26
78839;BME280;68405;47.190;27.558;2024-03-23T01:37:37;99702.95;;;5.79;69.37
78839;BME280;68405;47.190;27.558;2024-03-23T01:40:10;99704.19;;;5.77;69.28
78839;BME280;68405;47.190;27.558;2024-03-23T01:42:43;99697.70;;;5.75;68.92
78839;BME280;68405;47.190;27.558;2024-03-23T01:45:27;99688.26;;;5.72;69.27
78839;BME280;68405;47.190;27.558;2024-03-23T01:47:59;99689.52;;;5.69;68.90
78839;BME280;68405;47.190;27.558;2024-03-23T01:50:31;99688.68;;;5.68;68.88
78839;BME280;68405;47.190;27.558;2024-03-23T01:53:05;99690.27;;;5.65;69.03
78839;BME280;68405;47.190;27.558;2024-03-23T01:55:38;99691.70;;;5.63;68.94
78839;BME280;68405;47.190;27.558;2024-03-23T01:58:10;99692.06;;;5.62;68.94
78839;BME280;68405;47.190;27.558;2024-03-23T02:00:41;99687.95;;;5.61;68.83
78839;BME280;68405;47.190;27.558;2024-03-23T02:03:25;99686.94;;;5.59;68.78
78839;BME280;68405;47.190;27.558;2024-03-23T02:05:57;99687.35;;;5.55;68.83
78839;BME280;68405;47.190;27.558;2024-03-23T02:08:30;99684.13;;;5.52;68.97
78839;BME280;68405;47.190;27.558;2024-03-23T02:11:03;99680.02;;;5.51;69.14
78839;BME280;68405;47.190;27.558;2024-03-23T02:13:35;99679.31;;;5.52;69.19
78839;BME280;68405;47.190;27.558;2024-03-23T02:16:07;99679.49;;;5.50;69.20
78839;BME280;68405;47.190;27.558;2024-03-23T02:18:39;99676.41;;;5.51;69.24
78839;BME280;68405;47.190;27.558;2024-03-23T02:21:11;99673.33;;;5.49;69.28
78839;BME280;68405;47.190;27.558;2024-03-23T02:23:42;99670.38;;;5.50;69.57
78839;BME280;68405;47.190;27.558;2024-03-23T02:26:23;99666.97;;;5.48;69.69
78839;BME280;68405;47.190;27.558;2024-03-23T02:28:55;99665.09;;;5.47;69.77
78839;BME280;68405;47.190;27.558;2024-03-23T02:31:27;99667.36;;;5.45;69.71
78839;BME280;68405;47.190;27.558;2024-03-23T02:33:59;99668.60;;;5.43;69.81
78839;BME280;68405;47.190;27.558;2024-03-23T02:36:30;99665.57;;;5.39;69.47
78839;BME280;68405;47.190;27.558;2024-03-23T02:39:02;99668.89;;;5.37;69.64
78839;BME280;68405;47.190;27.558;2024-03-23T02:41:33;99665.28;;;5.36;69.51
78839;BME280;68405;47.190;27.558;2024-03-23T02:44:05;99669.10;;;5.34;69.66
78839;BME280;68405;47.190;27.558;2024-03-23T02:46:38;99668.77;;;5.32;69.59
78839;BME280;68405;47.190;27.558;2024-03-23T02:49:12;99667.92;;;5.32;69.75
78839;BME280;68405;47.190;27.558;2024-03-23T02:51:43;99667.95;;;5.30;69.78
78839;BME280;68405;47.190;27.558;2024-03-23T02:54:19;99666.08;;;5.30;69.88
78839;BME280;68405;47.190;27.558;2024-03-23T02:56:51;99662.30;;;5.28;69.57
78839;BME280;68405;47.190;27.558;2024-03-23T02:59:23;99658.69;;;5.28;69.54
78839;BME280;68405;47.190;27.558;2024-03-23T03:01:54;99657.15;;;5.28;69.67
78839;BME280;68405;47.190;27.558;2024-03-23T03:04:27;99652.19;;;5.26;69.51
78839;BME280;68405;47.190;27.558;2024-03-23T03:06:59;99652.21;;;5.24;69.69
78839;BME280;68405;47.190;27.558;2024-03-23T03:09:32;99645.52;;;5.23;69.84
78839;BME280;68405;47.190;27.558;2024-03-23T03:12:05;99642.62;;;5.21;69.70
78839;BME280;68405;47.190;27.558;2024-03-23T03:14:39;99639.21;;;5.19;69.62
78839;BME280;68405;47.190;27.558;2024-03-23T03:17:24;99636.52;;;5.15;69.72
78839;BME280;68405;47.190;27.558;2024-03-23T03:20:05;99630.37;;;5.13;69.81
78839;BME280;68405;47.190;27.558;2024-03-23T03:22:37;99627.30;;;5.10;69.87
78839;BME280;68405;47.190;27.558;2024-03-23T03:25:09;99624.91;;;5.09;70.02
78839;BME280;68405;47.190;27.558;2024-03-23T03:27:41;99619.05;;;5.09;70.69
78839;BME280;68405;47.190;27.558;2024-03-23T03:30:13;99622.04;;;5.06;70.20
78839;BME280;68405;47.190;27.558;2024-03-23T03:32:45;99617.08;;;5.04;70.27
78839;BME280;68405;47.190;27.558;2024-03-23T03:35:16;99614.70;;;5.01;70.06
78839;BME280;68405;47.190;27.558;2024-03-23T03:37:48;99616.16;;;4.97;69.88
78839;BME280;68405;47.190;27.558;2024-03-23T03:40:19;99615.00;;;4.94;70.10
78839;BME280;68405;47.190;27.558;2024-03-23T03:42:51;99613.84;;;4.90;70.04
78839;BME280;68405;47.190;27.558;2024-03-23T03:45:23;99609.77;;;4.87;69.92
78839;BME280;68405;47.190;27.558;2024-03-23T03:47:54;99606.73;;;4.83;69.96
78839;BME280;68405;47.190;27.558;2024-03-23T03:50:26;99603.45;;;4.83;70.32
78839;BME280;68405;47.190;27.558;2024-03-23T03:52:57;99601.91;;;4.82;70.38
78839;BME280;68405;47.190;27.558;2024-03-23T03:55:29;99598.13;;;4.83;70.83
78839;BME280;68405;47.190;27.558;2024-03-23T03:58:04;99598.29;;;4.84;70.69
78839;BME280;68405;47.190;27.558;2024-03-23T04:00:38;99595.88;;;4.84;71.08
78839;BME280;68405;47.190;27.558;2024-03-23T04:03:10;99596.39;;;4.83;71.24
78839;BME280;68405;47.190;27.558;2024-03-23T04:05:41;99591.77;;;4.82;71.13
78839;BME280;68405;47.190;27.558;2024-03-23T04:08:14;99591.59;;;4.82;70.96
78839;BME280;68405;47.190;27.558;2024-03-23T04:10:46;99591.09;;;4.82;71.24
78839;BME280;68405;47.190;27.558;2024-03-23T04:13:18;99589.02;;;4.82;71.23
78839;BME280;68405;47.190;27.558;2024-03-23T04:15:53;99589.13;;;4.87;71.41
78839;BME280;68405;47.190;27.558;2024-03-23T04:18:24;99586.63;;;4.93;71.52
78839;BME280;68405;47.190;27.558;2024-03-23T04:20:56;99583.61;;;4.99;71.25
78839;BME280;68405;47.190;27.558;2024-03-23T04:23:27;99577.52;;;5.03;71.15
78839;BME280;68405;47.190;27.558;2024-03-23T04:26:04;99574.84;;;5.08;71.05
78839;BME280;68405;47.190;27.558;2024-03-23T04:28:36;99579.89;;;5.14;70.93
78839;BME280;68405;47.190;27.558;2024-03-23T04:31:08;99583.23;;;5.21;70.71
78839;BME280;68405;47.190;27.558;2024-03-23T04:33:39;99581.48;;;5.32;70.69
78839;BME280;68405;47.190;27.558;2024-03-23T04:36:12;99583.08;;;5.48;70.91
78839;BME280;68405;47.190;27.558;2024-03-23T04:38:43;99582.74;;;5.75;70.54
78839;BME280;68405;47.190;27.558;2024-03-23T04:41:20;99579.44;;;6.28;70.48
78839;BME280;68405;47.190;27.558;2024-03-23T04:43:52;99577.94;;;7.21;70.25
78839;BME280;68405;47.190;27.558;2024-03-23T04:46:23;99576.25;;;8.03;70.10
78839;BME280;68405;47.190;27.558;2024-03-23T04:48:55;99575.05;;;8.77;69.46
78839;BME280;68405;47.190;27.558;2024-03-23T04:51:27;99576.73;;;9.57;69.97
78839;BME280;68405;47.190;27.558;2024-03-23T04:54:06;99574.39;;;10.54;68.39
78839;BME280;68405;47.190;27.558;2024-03-23T04:56:40;99566.66;;;11.20;68.32
78839;BME280;68405;47.190;27.558;2024-03-23T04:59:12;99566.73;;;11.76;67.50
78839;BME280;68405;47.190;27.558;2024-03-23T05:01:43;99562.52;;;12.53;66.37
78839;BME280;68405;47.190;27.558;2024-03-23T05:04:18;99564.33;;;13.44;66.63
78839;BME280;68405;47.190;27.558;2024-03-23T05:06:49;99560.66;;;13.95;65.69
78839;BME280;68405;47.190;27.558;2024-03-23T05:09:21;99556.20;;;14.54;66.56
78839;BME280;68405;47.190;27.558;2024-03-23T05:11:52;99556.98;;;15.55;63.81
78839;BME280;68405;47.190;27.558;2024-03-23T05:14:27;99557.52;;;16.85;60.48
78839;BME280;68405;47.190;27.558;2024-03-23T05:16:58;99555.70;;;17.83;56.95
78839;BME280;68405;47.190;27.558;2024-03-23T05:19:32;99554.08;;;18.55;51.16
78839;BME280;68405;47.190;27.558;2024-03-23T05:22:04;99548.73;;;19.44;50.25
78839;BME280;68405;47.190;27.558;2024-03-23T05:24:36;99548.52;;;20.26;53.66
78839;BME280;68405;47.190;27.558;2024-03-23T05:27:07;99549.45;;;21.23;56.44
78839;BME280;68405;47.190;27.558;2024-03-23T05:29:38;99553.39;;;22.34;52.97
78839;BME280;68405;47.190;27.558;2024-03-23T05:32:10;99551.19;;;23.42;50.09
78839;BME280;68405;47.190;27.558;2024-03-23T05:34:42;99555.64;;;24.59;48.12
78839;BME280;68405;47.190;27.558;2024-03-23T05:37:13;99556.17;;;25.63;45.74
78839;BME280;68405;47.190;27.558;2024-03-23T05:39:45;99555.26;;;26.37;40.50
78839;BME280;68405;47.190;27.558;2024-03-23T05:42:21;99551.54;;;26.77;40.55
78839;BME280;68405;47.190;27.558;2024-03-23T05:44:53;99553.70;;;26.80;37.52
78839;BME280;68405;47.190;27.558;2024-03-23T05:47:25;99554.91;;;27.27;40.01
78839;BME280;68405;47.190;27.558;2024-03-23T05:49:56;99550.95;;;28.00;40.19
78839;BME280;68405;47.190;27.558;2024-03-23T05:52:27;99550.27;;;28.67;39.26
78839;BME280;68405;47.190;27.558;2024-03-23T05:54:59;99549.60;;;29.13;35.27
78839;BME280;68405;47.190;27.558;2024-03-23T05:57:34;99554.94;;;29.49;36.24
78839;BME280;68405;47.190;27.558;2024-03-23T06:00:07;99554.59;;;29.94;33.66
78839;BME280;68405;47.190;27.558;2024-03-23T06:02:45;99558.67;;;30.43;33.74
78839;BME280;68405;47.190;27.558;2024-03-23T06:05:17;99557.46;;;31.23;32.92
78839;BME280;68405;47.190;27.558;2024-03-23T06:07:50;99551.08;;;32.14;29.50
78839;BME280;68405;47.190;27.558;2024-03-23T06:10:21;99550.20;;;32.61;30.12
78839;BME280;68405;47.190;27.558;2024-03-23T06:12:53;99548.91;;;32.94;27.18
78839;BME280;68405;47.190;27.558;2024-03-23T06:15:25;99550.73;;;32.95;29.08
78839;BME280;68405;47.190;27.558;2024-03-23T06:17:57;99549.73;;;33.52;28.74
78839;BME280;68405;47.190;27.558;2024-03-23T06:20:29;99548.88;;;34.16;25.46
78839;BME280;68405;47.190;27.558;2024-03-23T06:23:00;99547.48;;;34.24;25.12
78839;BME280;68405;47.190;27.558;2024-03-23T06:25:33;99548.88;;;34.89;23.23
78839;BME280;68405;47.190;27.558;2024-03-23T06:28:05;99545.77;;;35.21;24.12
78839;BME280;68405;47.190;27.558;2024-03-23T06:30:37;99542.67;;;35.31;24.07
78839;BME280;68405;47.190;27.558;2024-03-23T06:35:59;99539.97;;;36.37;25.50
78839;BME280;68405;47.190;27.558;2024-03-23T06:38:30;99535.70;;;36.97;23.18
78839;BME280;68405;47.190;27.558;2024-03-23T06:41:04;99546.54;;;37.65;23.55
78839;BME280;68405;47.190;27.558;2024-03-23T06:43:35;99544.86;;;38.38;20.72
78839;BME280;68405;47.190;27.558;2024-03-23T06:46:08;99544.60;;;38.83;22.83
78839;BME280;68405;47.190;27.558;2024-03-23T06:48:41;99538.59;;;39.07;22.50
78839;BME280;68405;47.190;27.558;2024-03-23T06:51:14;99541.47;;;39.36;22.40
78839;BME280;68405;47.190;27.558;2024-03-23T06:53:47;99543.73;;;39.71;22.48
78839;BME280;68405;47.190;27.558;2024-03-23T06:56:21;99542.80;;;40.26;22.11
78839;BME280;68405;47.190;27.558;2024-03-23T06:58:53;99538.39;;;40.44;20.43
78839;BME280;68405;47.190;27.558;2024-03-23T07:01:25;99538.61;;;40.31;21.12
78839;BME280;68405;47.190;27.558;2024-03-23T07:03:56;99533.11;;;40.16;21.27
78839;BME280;68405;47.190;27.558;2024-03-23T07:06:28;99528.98;;;40.34;20.29
78839;BME280;68405;47.190;27.558;2024-03-23T07:09:01;99526.21;;;40.43;20.42
78839;BME280;68405;47.190;27.558;2024-03-23T07:11:33;99518.83;;;39.71;19.45
78839;BME280;68405;47.190;27.558;2024-03-23T07:14:04;99517.59;;;39.37;17.65
78839;BME280;68405;47.190;27.558;2024-03-23T07:16:36;99517.70;;;39.13;18.42
78839;BME280;68405;47.190;27.558;2024-03-23T07:19:07;99513.39;;;37.92;17.72
78839;BME280;68405;47.190;27.558;2024-03-23T07:21:39;99512.27;;;37.36;18.10
78839;BME280;68405;47.190;27.558;2024-03-23T07:24:11;99512.64;;;37.36;18.76
78839;BME280;68405;47.190;27.558;2024-03-23T07:26:43;99510.89;;;37.00;17.88
78839;BME280;68405;47.190;27.558;2024-03-23T07:29:15;99505.77;;;36.76;18.76
78839;BME280;68405;47.190;27.558;2024-03-23T07:31:47;99513.42;;;37.58;18.38
78839;BME280;68405;47.190;27.558;2024-03-23T07:34:18;99512.58;;;38.14;17.94
78839;BME280;68405;47.190;27.558;2024-03-23T07:36:49;99514.70;;;38.77;17.32
78839;BME280;68405;47.190;27.558;2024-03-23T07:39:21;99510.64;;;38.76;16.79
78839;BME280;68405;47.190;27.558;2024-03-23T07:41:52;99503.16;;;39.57;16.37
78839;BME280;68405;47.190;27.558;2024-03-23T07:44:23;99499.00;;;40.47;16.72
78839;BME280;68405;47.190;27.558;2024-03-23T07:46:54;99492.83;;;40.30;15.33
78839;BME280;68405;47.190;27.558;2024-03-23T07:49:26;99491.61;;;38.79;14.74
78839;BME280;68405;47.190;27.558;2024-03-23T07:51:57;99498.00;;;38.06;15.74
78839;BME280;68405;47.190;27.558;2024-03-23T07:54:29;99488.80;;;37.32;15.19
78839;BME280;68405;47.190;27.558;2024-03-23T07:57:00;99492.42;;;36.98;15.91
78839;BME280;68405;47.190;27.558;2024-03-23T07:59:32;99497.77;;;37.00;15.96
78839;BME280;68405;47.190;27.558;2024-03-23T08:02:04;99494.02;;;37.03;16.47
78839;BME280;68405;47.190;27.558;2024-03-23T08:04:36;99497.11;;;37.63;16.46
78839;BME280;68405;47.190;27.558;2024-03-23T08:07:07;99496.33;;;37.89;16.17
78839;BME280;68405;47.190;27.558;2024-03-23T08:09:39;99489.36;;;38.24;15.88
78839;BME280;68405;47.190;27.558;2024-03-23T08:12:12;99493.14;;;38.55;15.55
78839;BME280;68405;47.190;27.558;2024-03-23T08:14:44;99488.25;;;39.21;15.87
78839;BME280;68405;47.190;27.558;2024-03-23T08:17:16;99479.66;;;39.38;15.84
78839;BME280;68405;47.190;27.558;2024-03-23T08:19:47;99478.30;;;39.51;14.51
78839;BME280;68405;47.190;27.558;2024-03-23T08:22:19;99481.00;;;39.08;13.99
78839;BME280;68405;47.190;27.558;2024-03-23T08:24:52;99477.89;;;38.49;14.27
78839;BME280;68405;47.190;27.558;2024-03-23T08:27:24;99474.85;;;38.23;14.40
78839;BME280;68405;47.190;27.558;2024-03-23T08:29:56;99472.67;;;38.23;15.27
78839;BME280;68405;47.190;27.558;2024-03-23T08:32:27;99475.14;;;38.59;14.23
78839;BME280;68405;47.190;27.558;2024-03-23T08:35:00;99471.07;;;39.08;14.00
78839;BME280;68405;47.190;27.558;2024-03-23T08:37:31;99464.27;;;39.45;14.20
78839;BME280;68405;47.190;27.558;2024-03-23T08:40:03;99461.90;;;39.37;14.26
78839;BME280;68405;47.190;27.558;2024-03-23T08:42:35;99465.90;;;39.39;14.52
78839;BME280;68405;47.190;27.558;2024-03-23T08:45:08;99458.21;;;39.23;14.24
78839;BME280;68405;47.190;27.558;2024-03-23T08:47:39;99452.67;;;39.51;14.03
78839;BME280;68405;47.190;27.558;2024-03-23T08:50:12;99451.67;;;39.88;14.56
78839;BME280;68405;47.190;27.558;2024-03-23T08:52:43;99446.55;;;40.53;14.29
78839;BME280;68405;47.190;27.558;2024-03-23T08:55:15;99446.54;;;40.73;13.19
78839;BME280;68405;47.190;27.558;2024-03-23T08:57:52;99442.04;;;40.33;14.21
78839;BME280;68405;47.190;27.558;2024-03-23T09:00:25;99437.65;;;40.76;14.06
78839;BME280;68405;47.190;27.558;2024-03-23T09:02:56;99429.94;;;40.71;14.20
78839;BME280;68405;47.190;27.558;2024-03-23T09:05:28;99434.41;;;41.46;14.28
78839;BME280;68405;47.190;27.558;2024-03-23T09:08:07;99430.25;;;41.50;12.61
78839;BME280;68405;47.190;27.558;2024-03-23T09:10:40;99425.51;;;40.66;12.70
78839;BME280;68405;47.190;27.558;2024-03-23T09:13:12;99418.75;;;40.49;13.20
78839;BME280;68405;47.190;27.558;2024-03-23T09:15:49;99415.75;;;40.67;13.61
78839;BME280;68405;47.190;27.558;2024-03-23T09:18:20;99409.52;;;40.52;13.09
78839;BME280;68405;47.190;27.558;2024-03-23T09:20:52;99407.69;;;40.31;12.87
78839;BME280;68405;47.190;27.558;2024-03-23T09:23:24;99403.88;;;40.23;12.86
78839;BME280;68405;47.190;27.558;2024-03-23T09:25:56;99399.20;;;39.80;13.02
78839;BME280;68405;47.190;27.558;2024-03-23T09:28:29;99397.95;;;39.21;12.58
78839;BME280;68405;47.190;27.558;2024-03-23T09:31:06;99390.17;;;38.91;13.24
78839;BME280;68405;47.190;27.558;2024-03-23T09:33:38;99388.36;;;39.55;13.69
78839;BME280;68405;47.190;27.558;2024-03-23T09:36:10;99387.61;;;39.59;13.13
78839;BME280;68405;47.190;27.558;2024-03-23T09:38:43;99382.82;;;39.31;13.18
78839;BME280;68405;47.190;27.558;2024-03-23T09:41:15;99376.96;;;38.86;13.41
78839;BME280;68405;47.190;27.558;2024-03-23T09:43:47;99377.29;;;38.84;13.76
78839;BME280;68405;47.190;27.558;2024-03-23T09:46:19;99369.61;;;38.75;14.65
78839;BME280;68405;47.190;27.558;2024-03-23T09:48:52;99372.12;;;38.71;14.75
78839;BME280;68405;47.190;27.558;2024-03-23T09:51:24;99364.19;;;39.23;14.44
78839;BME280;68405;47.190;27.558;2024-03-23T09:53:55;99362.80;;;39.49;14.22
78839;BME280;68405;47.190;27.558;2024-03-23T09:56:27;99363.02;;;39.39;13.85
78839;BME280;68405;47.190;27.558;2024-03-23T09:59:17;99363.02;;;39.16;13.77
78839;BME280;68405;47.190;27.558;2024-03-23T10:01:48;99359.55;;;39.04;14.27
78839;BME280;68405;47.190;27.558;2024-03-23T10:04:39;99355.63;;;39.37;14.71
78839;BME280;68405;47.190;27.558;2024-03-23T10:07:25;99351.39;;;39.53;13.92
78839;BME280;68405;47.190;27.558;2024-03-23T10:10:12;99349.19;;;38.75;13.14
78839;BME280;68405;47.190;27.558;2024-03-23T10:12:47;99339.52;;;38.25;13.21
78839;BME280;68405;47.190;27.558;2024-03-23T10:18:19;99334.02;;;37.14;14.05
78839;BME280;68405;47.190;27.558;2024-03-23T10:21:00;99326.08;;;37.31;14.21
78839;BME280;68405;47.190;27.558;2024-03-23T10:23:39;99325.36;;;37.08;14.41
78839;BME280;68405;47.190;27.558;2024-03-23T10:26:18;99316.84;;;36.50;13.43
78839;BME280;68405;47.190;27.558;2024-03-23T10:28:58;99312.56;;;36.80;15.31
78839;BME280;68405;47.190;27.558;2024-03-23T10:31:32;99307.55;;;36.53;13.67
78839;BME280;68405;47.190;27.558;2024-03-23T10:34:08;99307.73;;;36.17;14.56
78839;BME280;68405;47.190;27.558;2024-03-23T10:36:44;99298.75;;;36.08;14.63
78839;BME280;68405;47.190;27.558;2024-03-23T10:39:17;99294.23;;;35.63;14.47
78839;BME280;68405;47.190;27.558;2024-03-23T10:41:56;99288.66;;;36.08;14.75
78839;BME280;68405;47.190;27.558;2024-03-23T10:44:30;99287.50;;;36.60;15.41
78839;BME280;68405;47.190;27.558;2024-03-23T10:47:05;99285.05;;;36.22;14.13
78839;BME280;68405;47.190;27.558;2024-03-23T10:49:39;99279.73;;;34.92;14.61
78839;BME280;68405;47.190;27.558;2024-03-23T10:52:28;99272.59;;;35.17;15.29
78839;BME280;68405;47.190;27.558;2024-03-23T10:55:00;99265.48;;;35.46;15.50
78839;BME280;68405;47.190;27.558;2024-03-23T10:57:40;99258.71;;;35.53;14.87
78839;BME280;68405;47.190;27.558;2024-03-23T11:00:14;99255.53;;;34.95;14.65
78839;BME280;68405;47.190;27.558;2024-03-23T11:02:48;99257.30;;;33.85;14.90
78839;BME280;68405;47.190;27.558;2024-03-23T11:05:31;99252.79;;;33.40;15.55
78839;BME280;68405;47.190;27.558;2024-03-23T11:08:03;99246.10;;;32.97;15.84
78839;BME280;68405;47.190;27.558;2024-03-23T11:10:36;99238.29;;;33.06;15.86
78839;BME280;68405;47.190;27.558;2024-03-23T11:13:24;99234.10;;;33.05;16.07
78839;BME280;68405;47.190;27.558;2024-03-23T11:15:55;99231.08;;;33.14;15.96
78839;BME280;68405;47.190;27.558;2024-03-23T11:21:55;99218.95;;;32.99;16.37
78839;BME280;68405;47.190;27.558;2024-03-23T11:24:30;99218.22;;;32.29;15.98
78839;BME280;68405;47.190;27.558;2024-03-23T11:27:03;99214.29;;;31.46;16.52
78839;BME280;68405;47.190;27.558;2024-03-23T11:29:48;99213.95;;;30.82;16.68
78839;BME280;68405;47.190;27.558;2024-03-23T11:32:20;99208.11;;;30.23;17.45
78839;BME280;68405;47.190;27.558;2024-03-23T11:34:53;99203.12;;;29.61;17.62
78839;BME280;68405;47.190;27.558;2024-03-23T11:37:24;99199.19;;;29.01;18.23
78839;BME280;68405;47.190;27.558;2024-03-23T11:39:58;99191.80;;;28.78;18.68
78839;BME280;68405;47.190;27.558;2024-03-23T11:42:32;99185.89;;;29.01;19.00
78839;BME280;68405;47.190;27.558;2024-03-23T11:45:11;99180.21;;;29.13;18.77
78839;BME280;68405;47.190;27.558;2024-03-23T11:47:44;99182.23;;;28.27;19.05
78839;BME280;68405;47.190;27.558;2024-03-23T11:50:22;99176.63;;;27.72;19.44
78839;BME280;68405;47.190;27.558;2024-03-23T11:52:54;99169.25;;;27.72;19.77
78839;BME280;68405;47.190;27.558;2024-03-23T11:55:50;99167.82;;;27.43;20.13
78839;BME280;68405;47.190;27.558;2024-03-23T11:58:35;99167.51;;;26.98;20.58
78839;BME280;68405;47.190;27.558;2024-03-23T12:01:20;99157.95;;;26.29;20.83
78839;BME280;68405;47.190;27.558;2024-03-23T12:03:52;99147.36;;;25.77;21.33
78839;BME280;68405;47.190;27.558;2024-03-23T12:06:36;99138.88;;;25.58;21.91
78839;BME280;68405;47.190;27.558;2024-03-23T12:09:10;99136.01;;;25.40;21.98
78839;BME280;68405;47.190;27.558;2024-03-23T12:11:43;99130.27;;;25.28;22.53
78839;BME280;68405;47.190;27.558;2024-03-23T12:14:19;99126.70;;;24.94;22.50
78839;BME280;68405;47.190;27.558;2024-03-23T12:16:52;99127.66;;;24.41;23.10
78839;BME280;68405;47.190;27.558;2024-03-23T12:19:25;99127.09;;;24.00;23.28
78839;BME280;68405;47.190;27.558;2024-03-23T12:21:57;99121.52;;;24.04;23.71
78839;BME280;68405;47.190;27.558;2024-03-23T12:24:30;99116.34;;;24.13;23.82
78839;BME280;68405;47.190;27.558;2024-03-23T12:27:05;99112.18;;;24.04;23.68
78839;BME280;68405;47.190;27.558;2024-03-23T12:29:37;99103.76;;;23.89;24.03
78839;BME280;68405;47.190;27.558;2024-03-23T12:32:09;99102.58;;;23.81;24.41
78839;BME280;68405;47.190;27.558;2024-03-23T12:34:43;99103.24;;;23.53;24.58
78839;BME280;68405;47.190;27.558;2024-03-23T12:37:17;99093.96;;;23.15;24.99
78839;BME280;68405;47.190;27.558;2024-03-23T12:40:05;99097.79;;;23.14;25.18
78839;BME280;68405;47.190;27.558;2024-03-23T12:42:37;99083.80;;;23.00;25.07
78839;BME280;68405;47.190;27.558;2024-03-23T12:45:09;99080.16;;;22.86;25.45
78839;BME280;68405;47.190;27.558;2024-03-23T12:47:40;99080.59;;;22.89;25.69
78839;BME280;68405;47.190;27.558;2024-03-23T12:50:12;99074.75;;;22.71;25.78
78839;BME280;68405;47.190;27.558;2024-03-23T12:52:44;99069.11;;;22.55;26.03
78839;BME280;68405;47.190;27.558;2024-03-23T12:55:16;99069.45;;;22.52;26.23
78839;BME280;68405;47.190;27.558;2024-03-23T12:57:49;99065.92;;;22.38;26.22
78839;BME280;68405;47.190;27.558;2024-03-23T13:00:21;99070.54;;;22.32;26.27
78839;BME280;68405;47.190;27.558;2024-03-23T13:02:52;99062.11;;;22.20;26.26
78839;BME280;68405;47.190;27.558;2024-03-23T13:05:27;99060.67;;;22.17;26.47
78839;BME280;68405;47.190;27.558;2024-03-23T13:08:00;99055.23;;;22.12;26.37
78839;BME280;68405;47.190;27.558;2024-03-23T13:10:32;99054.83;;;22.15;26.68
78839;BME280;68405;47.190;27.558;2024-03-23T13:13:06;99046.84;;;22.02;26.53
78839;BME280;68405;47.190;27.558;2024-03-23T13:15:38;99039.77;;;21.89;26.52
78839;BME280;68405;47.190;27.558;2024-03-23T13:18:10;99033.78;;;21.84;26.86
78839;BME280;68405;47.190;27.558;2024-03-23T13:20:41;99033.84;;;21.77;26.97
78839;BME280;68405;47.190;27.558;2024-03-23T13:23:13;99029.23;;;21.64;26.95
78839;BME280;68405;47.190;27.558;2024-03-23T13:25:51;99024.30;;;21.54;26.96
78839;BME280;68405;47.190;27.558;2024-03-23T13:28:23;99019.63;;;21.38;26.93
78839;BME280;68405;47.190;27.558;2024-03-23T13:30:55;99017.16;;;21.25;27.27
78839;BME280;68405;47.190;27.558;2024-03-23T13:33:29;99017.14;;;21.06;27.22
78839;BME280;68405;47.190;27.558;2024-03-23T13:36:02;99014.80;;;21.00;27.45
78839;BME280;68405;47.190;27.558;2024-03-23T13:38:35;99011.05;;;20.89;27.50
78839;BME280;68405;47.190;27.558;2024-03-23T13:41:13;99006.48;;;20.83;27.63
78839;BME280;68405;47.190;27.558;2024-03-23T13:43:53;99002.62;;;20.85;27.78
78839;BME280;68405;47.190;27.558;2024-03-23T13:46:27;99003.59;;;20.76;27.85
78839;BME280;68405;47.190;27.558;2024-03-23T13:48:59;99004.67;;;20.62;27.83
78839;BME280;68405;47.190;27.558;2024-03-23T13:51:32;98999.36;;;20.52;27.86
78839;BME280;68405;47.190;27.558;2024-03-23T13:54:04;98994.06;;;20.42;27.90
78839;BME280;68405;47.190;27.558;2024-03-23T13:56:37;98987.55;;;20.44;28.19
78839;BME280;68405;47.190;27.558;2024-03-23T13:59:09;98987.42;;;20.47;28.40
78839;BME280;68405;47.190;27.558;2024-03-23T14:01:41;98985.73;;;20.39;28.45
78839;BME280;68405;47.190;27.558;2024-03-23T14:04:13;98984.44;;;20.24;28.34
78839;BME280;68405;47.190;27.558;2024-03-23T14:06:47;98977.08;;;20.11;28.57
78839;BME280;68405;47.190;27.558;2024-03-23T14:09:19;98979.17;;;20.05;28.76
78839;BME280;68405;47.190;27.558;2024-03-23T14:11:52;98975.38;;;19.94;29.18
78839;BME280;68405;47.190;27.558;2024-03-23T14:14:24;98974.77;;;19.79;28.97
78839;BME280;68405;47.190;27.558;2024-03-23T14:16:56;98969.80;;;19.81;29.21
78839;BME280;68405;47.190;27.558;2024-03-23T14:19:27;98974.91;;;19.79;29.56
78839;BME280;68405;47.190;27.558;2024-03-23T14:21:59;98970.13;;;19.74;29.44
78839;BME280;68405;47.190;27.558;2024-03-23T14:24:34;98973.90;;;19.69;29.66
78839;BME280;68405;47.190;27.558;2024-03-23T14:27:06;98964.91;;;19.60;29.90